Sun Prairie, WI (53590)

4:07 PM CDT on September 01, 2015 (GMT -0500)
Sun Prairie Shonas Highlands | | Change Station
CLOSE
Current Station
Personal Weather Station
Location: Sun Prairie, WI
Elevation: 945 ft
Nearby Weather Stations

Elev 945 ft 43.20 °N, 89.25 °W | Updated 3 minutes ago

Partly Cloudy
Partly Cloudy
89.1 °F
Feels Like 98 °F
N
6.0
Wind Variable Wind from SE
Gusts 13.0 mph

Today
High -- | Low -- °F
--% Chance of Precip.
Yesterday
High -- | Low -- °F
Precip. -- in
6:20 AM 7:32 PM
Waning Gibbous, 86% visible
Pressure 29.94 in
Visibility 10.0 miles
Clouds Few 4100 ft
Mostly Cloudy 25000 ft
Heat Index 98 °F
Dew Point 74 °F
Humidity 61%
Rainfall 0.00 in
Snow Depth Not available.
UV 3 out of 12
Pollen 10.80 out of 12
Air Quality Not available.
Flu Activity Not available.
METAR KMSN 012053Z 20009KT 10SM FEW041 BKN250 31/21 A2996 RMK AO2 SLP138 T03060211 56010
Pressure 29.94 in
Visibility 10.0 miles
Clouds Few 4100 ft
Mostly Cloudy 25000 ft
Heat Index 98 °F
Dew Point 74 °F
Humidity 61%
Rainfall 0.00 in
Snow Depth Not available.
UV 3 out of 12
Pollen 10.80 out of 12
Air Quality Not available.
Flu Activity Not available.
METAR KMSN 012053Z 20009KT 10SM FEW041 BKN250 31/21 A2996 RMK AO2 SLP138 T03060211 56010

10-Day Weather Forecast

×

Almanac

Astronomy

Sep. 01, 2015 Rise Set
Actual Time
Civil Twilight
Nautical Twilight
Astronomical Twilight
Moon
Length of Visible Light
Length of Day
Tomorrow will be .
, % of the Moon is Illuminated

Today's Extremes

State Highs State Lows

Community

WunderPhotos

Upload Photos

1,851,616 photos uploaded!

WunderBlogs® & News

Nearby

Air Quality

  Air Quality AQ Index Pollutant
Not available.

Snow Depth

Station Depth Elevation

Earthquake Activity

City Distance Mag. Time & Date
Minimum magnitude displayed is 2.5.

Coastal Water Temperatures

Place Temperature

Stations

Nearby Weather Stations

Station Location Temp. Windchill Dew Point Humidity Wind Precip. Elev Updated Type